createdAt,value
2022-12-28T00:01:47.018Z,5.07
2022-12-28T00:04:15.663Z,7.60
2022-12-28T00:06:42.743Z,5.68
2022-12-28T00:09:12.260Z,10.23
2022-12-28T00:11:39.170Z,7.65
2022-12-28T00:14:06.104Z,5.10
2022-12-28T00:16:38.482Z,8.75
2022-12-28T00:19:10.444Z,8.07
2022-12-28T00:21:37.357Z,4.47
2022-12-28T00:24:04.630Z,6.85
2022-12-28T00:26:33.453Z,5.72
2022-12-28T00:29:04.905Z,6.43
2022-12-28T00:31:33.659Z,5.55
2022-12-28T00:34:00.908Z,6.75
2022-12-28T00:37:08.789Z,6.70
2022-12-28T00:39:14.871Z,9.30
2022-12-28T00:41:41.751Z,8.40
2022-12-28T00:44:08.782Z,5.15
2022-12-28T00:46:35.709Z,5.85
2022-12-28T00:49:02.496Z,7.65
2022-12-28T00:51:29.276Z,5.57
2022-12-28T00:53:56.040Z,6.00
2022-12-28T00:56:23.552Z,6.22
2022-12-28T00:58:55.149Z,8.55
2022-12-28T01:01:24.060Z,6.05
2022-12-28T01:03:51.098Z,6.95
2022-12-28T01:06:20.535Z,6.90
2022-12-28T01:08:47.559Z,5.60
2022-12-28T01:11:19.105Z,8.13
2022-12-28T01:13:46.923Z,9.82
2022-12-28T01:16:30.677Z,6.55
2022-12-28T01:19:00.396Z,10.80
2022-12-28T01:21:30.487Z,6.40
2022-12-28T01:23:59.759Z,6.55
2022-12-28T01:26:27.564Z,6.80
2022-12-28T01:28:56.071Z,6.25
2022-12-28T01:31:23.226Z,5.25
2022-12-28T01:33:51.187Z,8.32
2022-12-28T01:36:19.415Z,6.70
2022-12-28T01:38:46.948Z,8.25
2022-12-28T01:41:16.862Z,8.77
2022-12-28T01:43:52.235Z,6.88
2022-12-28T01:46:50.154Z,9.45
2022-12-28T01:49:31.091Z,9.40
2022-12-28T01:52:23.829Z,10.85
2022-12-28T01:55:13.778Z,10.23
2022-12-28T01:58:06.567Z,5.85
2022-12-28T02:00:34.794Z,9.23
2022-12-28T02:03:16.320Z,8.48
2022-12-28T02:05:52.160Z,6.00
2022-12-28T02:08:22.853Z,8.85
2022-12-28T02:10:52.251Z,6.63
2022-12-28T02:13:21.114Z,9.50
2022-12-28T02:16:10.029Z,8.25
2022-12-28T02:18:36.988Z,10.18
2022-12-28T02:21:22.591Z,7.45
2022-12-28T02:24:10.740Z,8.88
2022-12-28T02:27:01.829Z,5.72
2022-12-28T02:29:51.890Z,7.97
2022-12-28T02:32:24.437Z,6.55
2022-12-28T02:34:53.994Z,6.47
2022-12-28T02:37:45.429Z,7.00
2022-12-28T02:40:35.051Z,8.95
2022-12-28T02:43:03.416Z,9.13
2022-12-28T02:45:55.194Z,7.95
2022-12-28T02:48:41.001Z,6.47
2022-12-28T02:51:29.492Z,6.78
2022-12-28T02:54:35.461Z,7.03
2022-12-28T02:57:18.958Z,8.32
2022-12-28T03:00:00.769Z,7.28
2022-12-28T03:02:47.673Z,7.35
2022-12-28T03:05:44.592Z,9.88
2022-12-28T03:08:21.870Z,8.55
2022-12-28T03:11:00.140Z,8.23
2022-12-28T03:13:45.915Z,8.75
2022-12-28T03:16:24.647Z,7.97
2022-12-28T03:19:21.808Z,9.85
2022-12-28T03:22:11.216Z,10.77
2022-12-28T03:24:58.491Z,7.15
2022-12-28T03:27:48.753Z,10.07
2022-12-28T03:30:40.236Z,9.50
2022-12-28T03:33:11.967Z,12.98
2022-12-28T03:36:00.840Z,10.52
2022-12-28T03:38:53.139Z,12.07
2022-12-28T03:41:45.264Z,9.43
2022-12-28T03:44:35.103Z,13.15
2022-12-28T03:47:12.891Z,10.32
2022-12-28T03:49:40.872Z,10.70
2022-12-28T03:52:09.928Z,13.60
2022-12-28T03:54:36.948Z,12.63
2022-12-28T03:57:03.850Z,13.93
2022-12-28T03:59:35.699Z,11.93
2022-12-28T04:02:02.678Z,12.88
2022-12-28T04:04:31.615Z,14.15
2022-12-28T04:06:58.464Z,10.32
2022-12-28T04:09:25.390Z,10.10
2022-12-28T04:11:53.339Z,11.73
2022-12-28T04:14:35.627Z,12.43
2022-12-28T04:17:02.479Z,11.52
2022-12-28T04:19:30.574Z,11.45
2022-12-28T04:21:57.368Z,16.33
2022-12-28T04:24:24.235Z,12.05
2022-12-28T04:26:51.305Z,9.55
2022-12-28T04:29:18.147Z,11.07
2022-12-28T04:31:49.567Z,10.98
2022-12-28T04:34:19.399Z,14.45
2022-12-28T04:37:18.592Z,13.07
2022-12-28T04:39:55.273Z,13.25
2022-12-28T04:42:25.382Z,13.57
2022-12-28T04:44:52.162Z,14.05
2022-12-28T04:47:18.923Z,11.50
2022-12-28T04:49:45.994Z,9.30
2022-12-28T04:52:12.836Z,13.63
2022-12-28T04:54:39.779Z,13.60
2022-12-28T04:57:06.998Z,14.07
2022-12-28T04:59:33.767Z,10.32
2022-12-28T05:02:00.806Z,13.48
2022-12-28T05:04:27.775Z,14.55
2022-12-28T05:06:54.560Z,12.30
2022-12-28T05:09:21.589Z,12.65
2022-12-28T05:11:48.401Z,9.90
2022-12-28T05:14:15.399Z,12.45
2022-12-28T05:16:42.404Z,11.98
2022-12-28T05:19:09.402Z,11.82
2022-12-28T05:21:36.421Z,10.02
2022-12-28T05:24:03.279Z,12.10
2022-12-28T05:26:30.410Z,13.10
2022-12-28T05:28:58.810Z,9.65
2022-12-28T05:31:26.269Z,10.13
2022-12-28T05:33:53.885Z,13.27
2022-12-28T05:36:25.906Z,9.60
2022-12-28T05:38:53.860Z,11.35
2022-12-28T05:41:28.572Z,16.85
2022-12-28T05:43:56.425Z,13.48
2022-12-28T05:46:25.945Z,12.00
2022-12-28T05:48:55.144Z,11.25
2022-12-28T05:51:24.806Z,10.80
2022-12-28T05:53:51.800Z,11.30
2022-12-28T05:56:24.198Z,13.43
2022-12-28T05:59:05.677Z,15.75
2022-12-28T06:01:35.905Z,13.10
2022-12-28T06:04:09.150Z,15.38
2022-12-28T06:06:36.550Z,16.17
2022-12-28T06:09:03.725Z,14.68
2022-12-28T06:11:31.163Z,17.35
2022-12-28T06:13:59.870Z,12.38
2022-12-28T06:16:29.331Z,14.50
2022-12-28T06:18:56.903Z,15.88
2022-12-28T06:21:29.061Z,14.05
2022-12-28T06:24:00.347Z,12.30
2022-12-28T06:26:29.020Z,14.32
2022-12-28T06:28:55.869Z,12.88
2022-12-28T06:31:25.034Z,16.52
2022-12-28T06:33:57.270Z,22.42
2022-12-28T06:36:30.508Z,29.48
2022-12-28T06:38:59.415Z,28.23
2022-12-28T06:41:28.939Z,29.77
2022-12-28T06:43:56.488Z,38.45
2022-12-28T06:46:26.159Z,36.58
2022-12-28T06:48:53.180Z,43.22
2022-12-28T06:51:25.661Z,41.65
2022-12-28T06:53:53.584Z,41.07
2022-12-28T06:56:26.027Z,39.95
2022-12-28T06:59:00.355Z,37.10
2022-12-28T07:01:33.108Z,39.95
2022-12-28T07:04:02.136Z,41.22
2022-12-28T07:06:30.119Z,39.17
2022-12-28T07:09:01.875Z,39.28
2022-12-28T07:11:29.223Z,27.58
2022-12-28T07:13:56.431Z,26.55
2022-12-28T07:16:24.621Z,20.70
2022-12-28T07:18:51.575Z,21.25
2022-12-28T07:21:24.395Z,19.65
2022-12-28T07:23:53.053Z,17.13
2022-12-28T07:26:22.631Z,18.35
2022-12-28T07:28:52.494Z,15.23
2022-12-28T07:31:22.846Z,12.85
2022-12-28T07:33:51.156Z,16.40
2022-12-28T07:36:19.934Z,12.85
2022-12-28T07:38:47.216Z,13.55
2022-12-28T07:41:20.047Z,11.90
2022-12-28T07:43:47.191Z,13.55
2022-12-28T07:46:19.591Z,13.55
2022-12-28T07:48:47.185Z,13.45
2022-12-28T07:51:18.554Z,12.68
2022-12-28T07:53:47.578Z,11.23
2022-12-28T07:56:15.242Z,11.90
2022-12-28T08:01:13.653Z,12.73
2022-12-28T08:03:42.113Z,13.75
2022-12-28T08:06:20.585Z,14.32
2022-12-28T08:08:50.432Z,12.63
2022-12-28T08:11:23.578Z,12.10
2022-12-28T08:13:52.536Z,11.50
2022-12-28T08:16:21.329Z,11.90
2022-12-28T08:18:49.333Z,12.18
2022-12-28T08:21:24.564Z,10.95
2022-12-28T08:23:52.033Z,11.38
2022-12-28T08:26:23.307Z,18.88
2022-12-28T08:28:53.116Z,10.30
2022-12-28T08:31:29.199Z,10.60
2022-12-28T08:33:57.403Z,10.27
2022-12-28T08:36:24.912Z,11.02
2022-12-28T08:38:51.981Z,13.10
2022-12-28T08:41:25.100Z,10.07
2022-12-28T08:43:53.960Z,11.70
2022-12-28T08:46:26.793Z,11.30
2022-12-28T08:48:55.893Z,12.60
2022-12-28T08:51:30.553Z,11.40
2022-12-28T08:53:57.759Z,12.63
2022-12-28T08:56:30.296Z,11.80
2022-12-28T08:58:58.167Z,12.00
2022-12-28T09:01:38.941Z,11.15
2022-12-28T09:04:15.412Z,13.25
2022-12-28T09:06:42.395Z,12.02
2022-12-28T09:09:13.072Z,12.43
2022-12-28T09:11:41.092Z,10.57
2022-12-28T09:14:10.300Z,16.88
2022-12-28T09:16:40.132Z,9.82
2022-12-28T09:19:09.462Z,9.68
2022-12-28T09:21:38.493Z,9.75
2022-12-28T09:24:06.323Z,12.27
2022-12-28T09:26:36.564Z,12.93
2022-12-28T09:29:06.348Z,12.15
2022-12-28T09:31:36.993Z,9.40
2022-12-28T09:34:34.923Z,11.00
2022-12-28T09:36:52.753Z,14.27
2022-12-28T09:39:24.713Z,12.57
2022-12-28T09:42:03.225Z,13.68
2022-12-28T09:44:42.861Z,12.45
2022-12-28T09:47:37.651Z,9.68
2022-12-28T09:50:30.144Z,10.52
2022-12-28T09:53:19.923Z,11.13
2022-12-28T09:56:06.118Z,10.60
2022-12-28T09:58:36.850Z,12.52
2022-12-28T10:01:09.443Z,9.95
2022-12-28T10:03:41.355Z,13.52
2022-12-28T10:06:25.332Z,11.32
2022-12-28T10:08:56.256Z,12.10
2022-12-28T10:11:29.658Z,14.82
2022-12-28T10:14:01.656Z,11.52
2022-12-28T10:16:36.684Z,11.63
2022-12-28T10:19:06.090Z,12.23
2022-12-28T10:21:34.922Z,11.75
2022-12-28T10:24:31.006Z,9.98
2022-12-28T10:26:54.382Z,10.55
2022-12-28T10:29:23.594Z,14.13
2022-12-28T10:32:01.116Z,8.63
2022-12-28T10:34:36.960Z,10.15
2022-12-28T10:37:18.305Z,10.05
2022-12-28T10:39:52.758Z,12.15
2022-12-28T10:42:30.920Z,7.90
2022-12-28T10:45:07.054Z,9.77
2022-12-28T10:47:42.226Z,9.38
2022-12-28T10:50:44.487Z,12.13
2022-12-28T10:53:20.888Z,14.15
2022-12-28T10:55:47.860Z,9.80
2022-12-28T10:58:31.844Z,10.02
2022-12-28T11:01:06.802Z,9.82
2022-12-28T11:06:26.260Z,8.77
2022-12-28T11:09:29.985Z,10.30
2022-12-28T11:12:17.890Z,10.02
2022-12-28T11:14:44.743Z,10.75
2022-12-28T11:17:25.852Z,14.25
2022-12-28T11:20:03.457Z,15.15
2022-12-28T11:22:33.128Z,10.68
2022-12-28T11:25:01.181Z,11.80
2022-12-28T11:27:30.124Z,13.23
2022-12-28T11:29:57.485Z,10.60
2022-12-28T11:32:31.019Z,10.73
2022-12-28T11:34:59.162Z,11.65
2022-12-28T11:37:26.015Z,15.93
2022-12-28T11:39:53.700Z,14.23
2022-12-28T11:42:41.221Z,13.85
2022-12-28T11:45:18.202Z,11.60
2022-12-28T11:47:45.767Z,12.23
2022-12-28T11:50:36.670Z,10.90
2022-12-28T11:53:18.881Z,11.98
2022-12-28T11:56:02.946Z,11.35
2022-12-28T11:58:42.280Z,14.52
2022-12-28T12:01:37.041Z,13.00
2022-12-28T12:04:10.168Z,10.02
2022-12-28T12:06:43.330Z,12.80
2022-12-28T12:09:22.195Z,12.63
2022-12-28T12:11:58.934Z,10.18
2022-12-28T12:14:47.811Z,19.17
2022-12-28T12:17:42.689Z,12.05
2022-12-28T12:20:19.069Z,11.38
2022-12-28T12:22:55.347Z,9.25
2022-12-28T12:25:32.525Z,10.93
2022-12-28T12:28:06.167Z,10.70
2022-12-28T12:30:33.364Z,12.93
2022-12-28T12:33:05.241Z,13.85
2022-12-28T12:35:42.421Z,13.82
2022-12-28T12:38:30.359Z,15.98
2022-12-28T12:41:09.183Z,11.88
2022-12-28T12:43:47.397Z,10.55
2022-12-28T12:47:05.458Z,13.23
2022-12-28T12:49:54.445Z,13.38
2022-12-28T12:52:42.531Z,11.95
2022-12-28T12:55:50.637Z,13.05
2022-12-28T12:58:29.017Z,13.82
2022-12-28T13:01:09.248Z,12.55
2022-12-28T13:03:45.554Z,13.32
2022-12-28T13:06:17.173Z,13.82
2022-12-28T13:08:52.644Z,12.70
2022-12-28T13:11:20.934Z,14.13
2022-12-28T13:13:54.828Z,12.45
2022-12-28T13:16:27.285Z,14.63
2022-12-28T13:19:06.584Z,12.40
2022-12-28T13:21:46.349Z,12.23
2022-12-28T13:24:27.417Z,16.77
2022-12-28T13:26:56.318Z,12.68
2022-12-28T13:29:25.981Z,11.52
2022-12-28T13:31:53.312Z,12.70
2022-12-28T13:34:24.102Z,12.35
2022-12-28T13:37:02.578Z,12.60
2022-12-28T13:39:36.757Z,12.73
2022-12-28T13:42:30.437Z,10.73
2022-12-28T13:45:07.605Z,15.18
2022-12-28T13:47:39.991Z,12.70
2022-12-28T13:50:12.502Z,14.43
2022-12-28T13:52:50.929Z,11.93
2022-12-28T13:55:24.269Z,14.50
2022-12-28T14:00:27.461Z,12.88
2022-12-28T14:02:57.040Z,13.93
2022-12-28T14:05:27.360Z,15.75
2022-12-28T14:07:56.496Z,14.10
2022-12-28T14:10:24.223Z,17.45
2022-12-28T14:12:52.734Z,18.98
2022-12-28T14:15:20.097Z,16.77
2022-12-28T14:17:49.410Z,15.38
2022-12-28T14:20:16.589Z,14.40
2022-12-28T14:22:43.603Z,16.95
2022-12-28T14:25:17.828Z,15.10
2022-12-28T14:27:57.265Z,19.02
2022-12-28T14:30:31.363Z,13.13
2022-12-28T14:33:19.381Z,12.23
2022-12-28T14:35:52.998Z,11.52
2022-12-28T14:38:28.121Z,12.77
2022-12-28T14:40:57.230Z,14.70
2022-12-28T14:43:35.747Z,17.33
2022-12-28T14:46:33.820Z,11.07
2022-12-28T14:49:21.072Z,13.80
2022-12-28T14:51:48.168Z,12.10
2022-12-28T14:54:20.163Z,12.55
2022-12-28T14:57:13.544Z,14.82
2022-12-28T14:59:44.431Z,13.45
2022-12-28T15:02:34.285Z,13.13
2022-12-28T15:05:02.118Z,12.43
2022-12-28T15:07:32.207Z,14.00
2022-12-28T15:10:00.415Z,12.45
2022-12-28T15:12:27.208Z,18.77
2022-12-28T15:14:53.934Z,18.05
2022-12-28T15:17:20.703Z,24.17
2022-12-28T15:19:48.104Z,37.83
2022-12-28T15:22:15.709Z,29.25
2022-12-28T15:24:48.943Z,24.17
2022-12-28T15:27:15.740Z,24.40
2022-12-28T15:32:31.206Z,27.35
2022-12-28T15:34:58.032Z,29.67
2022-12-28T15:37:24.826Z,28.33
2022-12-28T15:39:52.598Z,31.55
2022-12-28T15:42:19.384Z,25.25
2022-12-28T15:44:48.517Z,23.92
2022-12-28T15:47:15.413Z,24.85
2022-12-28T15:49:42.276Z,26.20
2022-12-28T15:52:09.131Z,30.17
2022-12-28T15:54:36.477Z,26.75
2022-12-28T15:57:04.834Z,28.52
2022-12-28T15:59:31.699Z,26.02
2022-12-28T16:01:58.768Z,28.80
2022-12-28T16:04:25.652Z,24.52
2022-12-28T16:06:52.417Z,24.13
2022-12-28T16:09:19.185Z,23.77
2022-12-28T16:11:50.174Z,28.30
2022-12-28T16:14:20.045Z,28.08
2022-12-28T16:16:47.097Z,27.85
2022-12-28T16:19:15.549Z,29.40
2022-12-28T16:21:44.399Z,30.30
2022-12-28T16:24:11.807Z,34.30
2022-12-28T16:26:38.630Z,30.80
2022-12-28T16:29:05.469Z,35.33
2022-12-28T16:31:35.323Z,31.13
2022-12-28T16:34:03.867Z,30.67
2022-12-28T16:36:31.023Z,27.25
2022-12-28T16:38:57.986Z,27.70
2022-12-28T16:41:26.388Z,21.88
2022-12-28T16:44:02.640Z,25.45
2022-12-28T16:46:29.604Z,23.83
2022-12-28T16:48:56.583Z,22.48
2022-12-28T16:51:24.199Z,25.05
2022-12-28T16:53:50.972Z,28.83
2022-12-28T16:56:17.729Z,21.60
2022-12-28T16:58:48.913Z,20.92
2022-12-28T17:01:17.620Z,21.25
2022-12-28T17:03:44.576Z,19.35
2022-12-28T17:06:11.394Z,19.00
2022-12-28T17:08:38.194Z,20.10
2022-12-28T17:11:09.785Z,21.30
2022-12-28T17:13:37.444Z,20.50
2022-12-28T17:16:04.651Z,23.45
2022-12-28T17:18:31.518Z,18.63
2022-12-28T17:21:04.754Z,21.45
2022-12-28T17:23:33.749Z,19.88
2022-12-28T17:26:00.667Z,24.98
2022-12-28T17:28:27.493Z,18.55
2022-12-28T17:31:05.129Z,19.63
2022-12-28T17:33:38.745Z,20.40
2022-12-28T17:36:06.723Z,19.48
2022-12-28T17:38:33.634Z,19.73
2022-12-28T17:41:00.341Z,19.63
2022-12-28T17:43:27.156Z,20.80
2022-12-28T17:45:53.993Z,18.48
2022-12-28T17:48:26.972Z,17.98
2022-12-28T17:50:53.702Z,17.17
2022-12-28T17:53:20.443Z,16.42
2022-12-28T17:55:47.226Z,22.20
2022-12-28T17:58:14.171Z,19.50
2022-12-28T18:00:41.014Z,20.33
2022-12-28T18:03:07.827Z,20.00
2022-12-28T18:05:34.734Z,20.08
2022-12-28T18:08:01.484Z,20.60
2022-12-28T18:10:28.263Z,16.15
2022-12-28T18:12:55.084Z,17.90
2022-12-28T18:15:21.848Z,18.33
2022-12-28T18:17:48.683Z,21.60
2022-12-28T18:20:16.183Z,19.98
2022-12-28T18:22:44.151Z,21.02
2022-12-28T18:25:10.961Z,20.15
2022-12-28T18:27:37.826Z,22.25
2022-12-28T18:30:04.973Z,19.98
2022-12-28T18:32:32.447Z,31.75
2022-12-28T18:34:59.293Z,24.70
2022-12-28T18:37:26.478Z,27.35
2022-12-28T18:39:55.226Z,29.02
2022-12-28T18:42:22.054Z,30.52
2022-12-28T18:44:48.900Z,23.52
2022-12-28T18:47:15.694Z,28.33
2022-12-28T18:49:46.885Z,24.52
2022-12-28T18:52:15.770Z,29.40
2022-12-28T18:54:42.712Z,22.88
2022-12-28T18:57:10.173Z,27.58
2022-12-28T18:59:37.115Z,23.50
2022-12-28T19:02:06.805Z,27.45
2022-12-28T19:04:34.636Z,21.73
2022-12-28T19:07:01.469Z,22.90
2022-12-28T19:09:28.372Z,20.08
2022-12-28T19:11:55.615Z,24.33
2022-12-28T19:14:22.450Z,22.67
2022-12-28T19:16:49.277Z,21.55
2022-12-28T19:19:17.650Z,19.38
2022-12-28T19:21:44.895Z,21.50
2022-12-28T19:24:17.950Z,21.52
2022-12-28T19:26:45.640Z,21.70
2022-12-28T19:29:13.756Z,19.88
2022-12-28T19:31:40.617Z,23.20
2022-12-28T19:34:07.533Z,19.35
2022-12-28T19:36:34.390Z,18.63
2022-12-28T19:39:01.172Z,19.58
2022-12-28T19:41:28.030Z,22.73
2022-12-28T19:43:55.048Z,22.08
2022-12-28T19:46:30.688Z,17.98
2022-12-28T19:49:02.556Z,22.75
2022-12-28T19:51:32.177Z,17.20
2022-12-28T19:54:02.586Z,19.42
2022-12-28T19:56:29.549Z,19.10
2022-12-28T19:59:04.937Z,22.05
2022-12-28T20:01:33.281Z,18.70
2022-12-28T20:04:00.336Z,19.35
2022-12-28T20:06:29.460Z,18.83
2022-12-28T20:08:58.979Z,21.50
2022-12-28T20:11:26.542Z,19.73
2022-12-28T20:13:58.621Z,17.95
2022-12-28T20:16:27.496Z,21.10
2022-12-28T20:18:55.556Z,19.33
2022-12-28T20:21:24.576Z,18.63
2022-12-28T20:23:52.955Z,21.00
2022-12-28T20:26:21.378Z,26.00
2022-12-28T20:28:50.742Z,23.60
2022-12-28T20:31:17.978Z,25.27
2022-12-28T20:33:45.536Z,21.45
2022-12-28T20:36:18.426Z,23.50
2022-12-28T20:38:45.799Z,36.20
2022-12-28T20:41:37.023Z,30.35
2022-12-28T20:44:09.186Z,23.90
2022-12-28T20:46:36.445Z,19.85
2022-12-28T20:49:03.808Z,19.67
2022-12-28T20:51:30.777Z,24.08
2022-12-28T20:53:57.523Z,21.63
2022-12-28T20:56:24.460Z,20.10
2022-12-28T20:58:51.322Z,21.58
2022-12-28T21:01:19.064Z,18.95
2022-12-28T21:03:46.868Z,23.55
2022-12-28T21:06:14.296Z,20.83
2022-12-28T21:08:41.386Z,27.27
2022-12-28T21:11:08.184Z,20.48
2022-12-28T21:13:38.109Z,20.50
2022-12-28T21:16:09.856Z,19.65
2022-12-28T21:18:36.746Z,21.25
2022-12-28T21:21:03.690Z,26.20
2022-12-28T21:23:31.939Z,24.55
2022-12-28T21:26:03.498Z,23.25
2022-12-28T21:28:31.599Z,20.27
2022-12-28T21:31:00.046Z,20.45
2022-12-28T21:33:26.883Z,21.38
2022-12-28T21:36:01.703Z,23.08
2022-12-28T21:38:29.265Z,26.90
2022-12-28T21:41:04.194Z,25.27
2022-12-28T21:43:32.097Z,21.40
2022-12-28T21:46:11.272Z,19.50
2022-12-28T21:48:38.579Z,19.23
2022-12-28T21:51:31.200Z,19.00
2022-12-28T21:54:04.318Z,21.88
2022-12-28T21:56:32.058Z,19.60
2022-12-28T21:58:59.667Z,23.40
2022-12-28T22:01:46.740Z,23.05
2022-12-28T22:04:35.448Z,20.25
2022-12-28T22:07:03.229Z,20.80
2022-12-28T22:09:48.488Z,18.83
2022-12-28T22:12:34.106Z,18.67
2022-12-28T22:15:26.312Z,20.27
2022-12-28T22:17:59.092Z,21.85
2022-12-28T22:20:28.069Z,18.90
2022-12-28T22:22:59.288Z,18.85
2022-12-28T22:25:26.745Z,21.15
2022-12-28T22:27:53.544Z,18.98
2022-12-28T22:30:20.405Z,19.30
2022-12-28T22:32:47.776Z,17.85
2022-12-28T22:35:14.846Z,19.83
2022-12-28T22:37:42.820Z,20.67
2022-12-28T22:40:10.787Z,15.77
2022-12-28T22:42:45.128Z,18.65
2022-12-28T22:45:15.007Z,18.45
2022-12-28T22:47:42.657Z,20.60
2022-12-28T22:50:12.571Z,19.50
2022-12-28T22:52:39.614Z,20.10
2022-12-28T22:55:07.347Z,21.08
2022-12-28T22:57:34.194Z,21.80
2022-12-28T23:00:01.018Z,21.63
2022-12-28T23:02:30.504Z,16.83
2022-12-28T23:04:57.384Z,16.75
2022-12-28T23:07:24.124Z,16.77
2022-12-28T23:09:51.104Z,17.85
2022-12-28T23:12:17.888Z,18.48
2022-12-28T23:15:03.342Z,16.73
2022-12-28T23:17:31.507Z,16.65
2022-12-28T23:20:17.061Z,19.35
2022-12-28T23:23:02.325Z,16.52
2022-12-28T23:25:47.886Z,18.30
2022-12-28T23:28:16.287Z,19.80
2022-12-28T23:30:46.541Z,18.92
2022-12-28T23:33:13.694Z,16.83
2022-12-28T23:35:40.451Z,16.08
2022-12-28T23:38:07.210Z,19.10
2022-12-28T23:40:34.064Z,19.45
2022-12-28T23:43:00.901Z,17.88
2022-12-28T23:45:27.709Z,20.27
2022-12-28T23:47:54.867Z,18.58
2022-12-28T23:50:21.743Z,18.83
2022-12-28T23:52:48.605Z,19.67
2022-12-28T23:55:15.647Z,18.25
2022-12-28T23:57:42.540Z,18.80
